Terminal Aerodrome Forecast
Issued by NWS Boston, MA

Home | Current Version | Previous Version | Text Only | Print | Product List | Glossary On
Versions: 1 2 3 4 5 6 7 8 9 10 11 12 13 14 15 16 17 18 19 20 21 22 23 24 25 26 27 28 29 30 31 32 33 34 35 36 37 38 39 40 41 42 43 44 45 46
000
FTUS41 KBOX 232108 AAA
TAFBDL
TAF AMD
KBDL 232108Z 2321/2424 03010KT P6SM FEW030 FEW250
     FM240000 VRB03KT P6SM SCT250
      TEMPO 2408/2411 5SM BR
     FM241300 03005KT P6SM SCT250=

USA.gov is the U.S. government's official web portal to all federal, state and local government web resources and services.